Timeline UpdatesTrip UpdatesNews PostsPvt PostsTravel TipsAdmin PostsConv PostsFollowed PostsChat RequestsBlog PostsPNR Posts

Disclaimer
Search
 
 
Sat Jul 26, 2014 06:34:38 ISTHomeTrainsΣChainsAtlasPNRForumGalleryNewsFAQTripsMembersLoginFeedback
No Recent News for this Train
Other Trains in the News **new
Latest...
.
Sat Feb 02, 2013 (04:11PM)
⇐ Return Journey: Train# 51188

51187/Bhusaval Katni Passenger (UnReserved)

Feb 01 2014 (2:01PM)
Change Departure Station:
Change Arrival Station:
Post a Train Travel TipPost a Train Travel Tip **new
Post a Comment/Question/Picture/VideoPost a Comment/Question/Picture/Video
Pantry/Catering
???
RSA - Rake Sharing
Rake/Coach Composition
Loco
BSL-ET: BSL/ET WAP-4 ET-KTE: ET/KTE WDM-3A
News    PNR    Forum    Time-Table    Availability    Fare Chart    Map    Arr/Dep History    Trips    Gallery    ΣChains    X/O    Timeline    
Travel Time: 16h 30m    65 halts    Distance: 579 km    Avg Speed: 35 km/hr
Type: Passenger
Zone: CR/Central
Departs @ 10:55
Platform# ???
SMTWTFS
Asirgarh Road/AGQ 
Arrives @ 03:25 +1 night
Platform# ???
SMTWTFS
Katni Junction/KTE 

65 halts. 71 intermediate Stations between Asirgarh Road and Katni Junction

Show ALL intermediate Stations  Show Old Time-Table

#CodeStation NameX/OArrivesAvgDepartsAvgHaltPFDay#KmSpeedElevZoneAddress
1BSLBhusaval Junction (8)  -09:30---1-63.437208mCRBhusaval 425201, Maharashtra
2DSKDuskheda (2)X  09:41-09:42-1m--1-56.747213mCRDuskheda Station, Maharashtra
3SAVSavda (2)X  09:53-09:54-1m--1-48.048220mCRSavda, Maharashtra
4NBNimbhora  10:05-10:06-1m--1-39.355229mCRJalgaon, Maharashtra
5RVRaver (2)  10:17-10:18-1m--1-29.154242mCRJalgaon, Maharashtra
6WGAWaghodaX  10:29-10:30-1m--1-19.244259mCRChorwad, Maharashtra
7BAUBurhanpur (2)X  10:44-10:45-1m21-8.960269mCRBurhanpur, Madhya Pradesh
8AGQ»Asirgarh Road (2)»  10:54-10:55-1m--10.068259mCRState Highway 27, Madhya Pradesh
9CDIChandni (2)X  11:04-11:05-1m--110.247276mCRNepanagar Rd, Madhya Pradesh
10NPNRNepanagar (2)  11:14-11:15-1m--117.350289mCRState Highway 27, Madhya Pradesh
11MWAMandwa (2)X  11:22-11:23-1m--123.160317mCRState Highway 27, Madhya Pradesh
12SXASagphata (2)  11:29-11:30-1m--129.166350mCRKhandwa, Madhya Pradesh
13DGNDongargaon (2)X  11:37-11:38-1m--136.891373mCRBorgaon, Madhya Pradesh
14KDKKohdad (2)X  11:43-11:44-1m--144.453344mCRState Highway 15, Madhya Pradesh
15BMABagmar (2)X  11:49-11:50-1m--148.890335mCRState Highway 27, Madhya Pradesh
16BRGJBargaon Gujar (2)X  11:54-11:55-1m--154.86316mCRKhandwa, Madhya Pradesh
17KNWKhandwa Junction (5)X  12:50-12:55-5m--159.944310mCRKhandwa, Madhya Pradesh
18MTAMathela (2)  13:05-13:06-1m--167.356322mWCRKhandwa, Madhya Pradesh
19TLVTalvadiya (2)X  13:15-13:16-1m--175.771308mWCRKhandwa, Madhya Pradesh
20SGBJSurgaon Banjari (2)  13:26-13:27-1m--187.474298mWCRKhandwa, Madhya Pradesh
21CKKDCharkheda Khurd (2)  13:36-13:37-1m--198.651274mWCRKhandwa, Madhya Pradesh
22CAERChhanera (2)  13:45-13:46-1m--1105.461283mWCRChhanera, Madhya Pradesh
23BRUDBarud (2)X  13:56-13:57-1m--1115.557273mWCRKhandwa, Madhya Pradesh
24DRHIDagarhkeri (2)X  14:07-14:08-1m--1125.166274mWCRState Highway 15, Madhya Pradesh
25KKNKhirkiya (2)X  14:18-14:19-1m21136.048281mWCRSH 15, Madhya Pradesh
26KROKurawan (2)X  14:27-14:29-2m--1142.440297mWCRSH 15, Madhya Pradesh
27BRIBhiringi (2)X  14:39-14:40-1m--1149.144294mWCRSH 15, Madhya Pradesh
28MUOMasangaon (2)  14:47-14:48-1m--1154.251303mWCRSH 15, Madhya Pradesh
29PALPalasner (2)  14:55-14:56-1m--1160.244296mWCRHarda, Madhya Pradesh
30HDHarda (3)X  15:06-15:07-1m--1167.653289mWCRHarda, Madhya Pradesh
31CRKCharkhera (2)  15:15-15:16-1m--1174.653298mWCRBarkalan, Madhya Pradesh
32TBNTimarni (2)  15:24-15:25-1m--1181.771308mWCRTimarni, Madhya Pradesh
33CGOChhidgaon (2)X  15:33-15:35-2m--1191.235309mWCRHarda, Madhya Pradesh
34PGLPagdhal (2)X  15:42-15:43-1m--1195.355317mWCRPagdhal, Madhya Pradesh
35BIFBhaironpur (2)X  15:51-15:52-1m--1202.655322mWCRSH 15, Madhya Pradesh
36BPFBanapura (2)  16:00-16:01-1m--1209.955314mWCRBanapura, Madhya Pradesh
37DKIDharamkundi (2)  16:10-16:11-1m--1218.155314mWCRSH 15, Madhya Pradesh
38KTZKhutwansa (2)X  16:19-16:20-1m--1225.538325mWCRSH 15, Madhya Pradesh
39DRADularia (2)O  16:29-16:30-1m--1231.112318mWCRItarsi, Madhya Pradesh
40ETItarsi Junction (7)X  17:30-17:50-20m--1243.463329mWCRItarsi 461111, Madhya Pradesh
41GROGurra (2)  18:00-18:02-2m--1253.960327mWCRItarsi, Madhya Pradesh
42SQLSontalai (2)  18:11-18:13-2m--1262.946329mWCRItarsi, Madhya Pradesh
43BGTABagratawa (2)X  18:22-18:24-2m--1269.871338mWCRBagra Tawa, Madhya Pradesh
44GMDGuramkhedi (2)  18:35-18:37-2m--1282.960337mWCRGuramkhedi, Madhya Pradesh
45SGPSohagpur (2)X  18:47-18:49-2m--1292.960340mWCRSohagpur, Madhya Pradesh
46SXFSobhapur (2)  18:58-19:00-2m--1301.965338mWCRState Highway 22, Madhya Pradesh
47PPIPipariya (3)X  19:08-19:09-1m31310.676338mWCRPiparia, Madhya Pradesh
48BKHBankhedi (2)  19:24-19:25-1m--1329.548351mWCRBankheri, Madhya Pradesh
49JHTJunehta (2)X  19:33-19:34-1m--1335.961353mWCRState Highway 22, Madhya Pradesh
50SCKRSalichauka Road (2)X  19:44-19:45-1m--1346.170355mWCRGadarwara, Madhya Pradesh
51GARGadarwara (2)  19:57-19:58-1m11360.065352mWCRNarsinghpur, Madhya Pradesh
52BNEBohani (2)O  20:10-20:11-1m21372.945361mWCRNarsinghpur, Madhya Pradesh
53KFYKarapgaon (2)X  20:20-20:21-1m--1379.738363mWCRNational Highway 26, Madhya Pradesh
54KYKareli (2)X  20:34-20:35-1m11387.943361mWCRKareli, Madhya Pradesh
55NUNarsinghpur (2)  20:58-21:00-2m11404.350365mWCRNarsimhapur, Madhya Pradesh
56GPCGhatpindrai (2)X  21:07-21:08-1m--1410.137366mWCRGhatpindra, Madhya Pradesh
57BELDBelkhera (2)  21:17-21:18-1m--1415.633367mWCRState Highway 22, Madhya Pradesh
58KKBKarak Bel (2)XO  21:26-21:28-2m11420.013375mWCRKarak Bel, Madhya Pradesh
59SRIDShridham (3)O  22:38-22:40-2m21435.355373mWCRShridham, Madhya Pradesh
60BMRBikrampur (2)  22:53-22:54-1m--1447.258353mWCRBikrampur Dist Narsingpur., Madhya Pradesh
61BHTNBhitoni (2)X  23:06-23:07-1m--1458.866377mWCRJabalpur, Madhya Pradesh
62BRGTBheraghat (2)X  23:19-23:20-1m--1471.918389mWCRBheraghat, Madhya Pradesh
63MMLMadan Mahal (3)  00:03-00:05-2m32485.06428mWCRJabalpur, Madhya Pradesh
64JBPJabalpur Junction (4)X  00:40-00:50-10m22488.644416mWCRJabalpur, Madhya Pradesh
65ADTLAdhartal (2)X  01:01-01:03-2m--2496.559393mWCRJabalpur, Madhya Pradesh
66DOEDeori (2)  01:12-01:14-2m--2505.363392mWCRJabalpur, Madhya Pradesh
67GSPRGosalpur (2)XO  01:24-01:26-2m--2515.974396mWCRJabalpur, Madhya Pradesh
68SHRSihora Road (2)XO  01:35-01:37-2m--2527.075388mWCRJabalpur, Madhya Pradesh
69DDCEDundi (2)O  01:49-01:51-2m--2541.971415mWCRDundi, Madhya Pradesh
70SBDSleemanabad Road (2)X  01:59-02:01-2m--2551.441434mWCRSleemanabad, Madhya Pradesh
71SNRRSansarpur (2)O  02:11-02:13-2m--2558.318436mWCRNational Highway 7, Madhya Pradesh
72NWRNiwar (2)  02:39-02:40-1m--2566.069412mWCRPipraundh, Madhya Pradesh
73MDRRMadhavnagar Road (2)X  02:47-02:49-2m--2574.19398mWCRMadhavnagar, Madhya Pradesh
74KTE•Katni Junction (6)•  03:25----2579.2-387mWCRKatni, Madhya Pradesh
Scroll to Top
Scroll to Bottom